Time;durP1;ratioP1;P1;durP2;ratioP2;P2;SDS_P1;SDS_P2;PMS_P1;PMS_P2;Temp;Humidity;BMP_temperature;BMP_pressure;BME280_temperature;BME280_humidity;BME280_pressure;Samples;Min_cycle;Max_cycle;Signal;HPM_P1;HPM_P2
2021/01/11 00:00:19;;;;;;;18.30;10.55;;;-3.80;94.80;;;;;;6376371;27;20106;-77
2021/01/11 00:03:20;;;;;;;14.77;10.27;;;;;;;;;;6357820;27;20128;-79
2021/01/11 00:06:21;;;;;;;17.20;10.68;;;-3.90;95.70;;;;;;6376213;27;20465;-77
2021/01/11 00:09:22;;;;;;;14.50;10.32;;;-4.20;85.20;;;;;;6376240;27;20058;-77
2021/01/11 00:12:23;;;;;;;16.13;10.68;;;;;;;;;;6376112;27;20420;-77
2021/01/11 00:15:23;;;;;;;14.35;9.68;;;-4.00;95.10;;;;;;6376253;27;20051;-78
2021/01/11 00:18:24;;;;;;;15.50;9.70;;;-3.70;95.70;;;;;;6375931;27;20025;-77
2021/01/11 00:21:25;;;;;;;16.30;10.38;;;-4.10;95.70;;;;;;6375876;27;20034;-78
2021/01/11 00:24:25;;;;;;;16.90;10.02;;;-4.10;95.60;;;;;;6375902;27;20517;-77
2021/01/11 00:27:26;;;;;;;15.88;10.32;;;-4.30;96.20;;;;;;6375723;27;20365;-77
2021/01/11 00:30:27;;;;;;;15.70;10.02;;;-4.30;86.90;;;;;;6375701;27;20023;-79
2021/01/11 00:33:27;;;;;;;17.05;10.55;;;-4.20;96.20;;;;;;6375603;27;20061;-79
2021/01/11 00:36:28;;;;;;;17.40;11.02;;;-4.50;96.00;;;;;;6375809;27;20022;-78
2021/01/11 00:39:28;;;;;;;19.52;10.23;;;-4.40;86.10;;;;;;6375533;27;20472;-78
2021/01/11 00:42:32;;;;;;;15.10;10.00;;;-4.40;85.00;;;;;;6375626;27;20114;-77
2021/01/11 00:45:33;;;;;;;16.92;9.82;;;-4.40;86.30;;;;;;6375317;27;20395;-77
2021/01/11 00:48:33;;;;;;;14.38;9.55;;;-4.10;99.90;;;;;;6375813;27;20032;-77
2021/01/11 00:51:36;;;;;;;15.32;9.70;;;-4.30;94.20;;;;;;6375250;27;20510;-77
2021/01/11 00:54:37;;;;;;;18.10;10.65;;;-4.40;86.10;;;;;;6356817;27;20474;-79
2021/01/11 00:57:38;;;;;;;17.52;10.70;;;-4.30;84.60;;;;;;6375185;27;20075;-77
2021/01/11 01:00:38;;;;;;;14.45;8.90;;;-4.30;85.80;;;;;;6374043;27;20030;-78
2021/01/11 01:03:39;;;;;;;14.68;9.93;;;-2.50;84.90;;;;;;6356232;27;20050;-77
2021/01/11 01:06:40;;;;;;;17.23;11.07;;;-4.10;85.00;;;;;;6374813;27;20023;-78
2021/01/11 01:09:40;;;;;;;8.63;6.40;;;-4.10;84.70;;;;;;6374917;27;20482;-78
2021/01/11 01:12:41;;;;;;;10.82;7.35;;;-4.40;81.00;;;;;;6374677;27;20019;-79
2021/01/11 01:15:42;;;;;;;12.23;7.72;;;-4.40;82.80;;;;;;6374574;27;20032;-77
2021/01/11 01:18:43;;;;;;;11.20;7.30;;;;;;;;;;6374705;27;20030;-78
2021/01/11 01:21:43;;;;;;;11.07;7.35;;;-4.50;91.30;;;;;;6374387;27;20522;-77
2021/01/11 01:24:44;;;;;;;11.00;7.35;;;-4.30;82.70;;;;;;6374335;27;20094;-78
2021/01/11 01:27:44;;;;;;;12.68;7.72;;;-4.60;81.30;;;;;;6374290;27;20030;-77
2021/01/11 01:30:45;;;;;;;14.70;8.98;;;-4.40;94.00;;;;;;6374246;27;20027;-77
2021/01/11 01:33:46;;;;;;;12.98;8.20;;;-4.60;81.80;;;;;;6374127;27;20019;-78
2021/01/11 01:36:46;;;;;;;12.18;7.90;;;-4.50;84.70;;;;;;6355937;27;20031;-78
2021/01/11 01:39:47;;;;;;;12.27;8.75;;;-4.80;99.90;;;;;;6374045;27;20747;-77
2021/01/11 01:42:47;;;;;;;13.45;9.27;;;-2.20;83.40;;;;;;6374094;27;20023;-77
2021/01/11 01:45:48;;;;;;;15.05;9.52;;;-4.60;84.30;;;;;;6373940;27;20372;-78
2021/01/11 01:48:49;;;;;;;14.32;9.40;;;-3.30;84.20;;;;;;6374210;27;20031;-77
2021/01/11 01:51:49;;;;;;;14.68;9.55;;;-4.60;85.80;;;;;;6338421;27;20023;-78
2021/01/11 01:54:50;;;;;;;13.20;8.98;;;-4.60;85.60;;;;;;6373733;27;20015;-77
2021/01/11 01:57:54;;;;;;;10.70;7.55;;;-4.10;95.50;;;;;;6355762;27;20027;-77
2021/01/11 02:00:54;;;;;;;11.25;7.25;;;-4.60;84.20;;;;;;6355196;27;20023;-78
2021/01/11 02:03:55;;;;;;;10.30;6.72;;;-3.80;82.70;;;;;;6354994;27;20074;-77
2021/01/11 02:07:06;;;;;;;9.02;6.53;;;-2.70;84.30;;;;;;6373492;27;20020;-78
2021/01/11 02:10:22;;;;;;;10.43;6.55;;;-4.90;99.90;;;;;;6355046;27;20023;-78
2021/01/11 02:13:31;;;;;;;9.48;6.38;;;-4.80;78.50;;;;;;6373317;27;20440;-79
2021/01/11 02:16:52;;;;;;;9.52;6.32;;;-4.80;79.50;;;;;;6373265;27;20022;-77
2021/01/11 02:20:23;;;;;;;10.95;6.57;;;-4.80;78.40;;;;;;6373125;27;20309;-78
2021/01/11 02:23:45;;;;;;;9.65;6.40;;;-4.80;91.30;;;;;;6357611;27;20076;-77
2021/01/11 02:27:26;;;;;;;9.43;5.97;;;-4.80;79.80;;;;;;6373211;27;20364;-78
2021/01/11 02:30:31;;;;;;;10.05;6.55;;;-5.00;92.40;;;;;;6372855;27;20034;-77
2021/01/11 02:33:31;;;;;;;11.38;6.90;;;-5.00;88.50;;;;;;6354826;27;20027;-78
2021/01/11 02:36:32;;;;;;;9.88;6.28;;;-5.10;83.10;;;;;;6354600;27;20035;-77
2021/01/11 02:39:32;;;;;;;8.00;5.20;;;-5.00;94.60;;;;;;6337744;27;20027;-78
2021/01/11 02:42:33;;;;;;;10.52;6.75;;;-2.00;84.20;;;;;;6372797;27;20335;-78
2021/01/11 02:45:34;;;;;;;8.55;6.22;;;-5.10;81.10;;;;;;6354634;27;20151;-77
2021/01/11 02:48:48;;;;;;;8.48;5.82;;;-4.60;82.00;;;;;;6372452;27;20073;-79
2021/01/11 02:52:16;;;;;;;12.48;7.18;;;-5.00;79.70;;;;;;6354510;28;20380;-79
2021/01/11 02:55:24;;;;;;;10.70;6.68;;;-5.00;78.40;;;;;;6354208;27;20019;-77
2021/01/11 02:58:46;;;;;;;9.60;6.45;;;-5.10;83.10;;;;;;6355036;28;20019;-76
2021/01/11 03:01:55;;;;;;;10.70;6.80;;;-5.20;80.30;;;;;;6372497;28;20444;-78
2021/01/11 03:04:56;;;;;;;9.65;6.72;;;;;;;;;;6372231;28;20039;-77
2021/01/11 03:07:58;;;;;;;12.27;7.72;;;-5.30;80.90;;;;;;6372311;28;20403;-77
2021/01/11 03:10:59;;;;;;;9.10;6.63;;;;;;;;;;6354261;28;20032;-77
2021/01/11 03:13:59;;;;;;;8.77;6.90;;;-5.20;92.30;;;;;;6372214;27;20027;-79
2021/01/11 03:17:00;;;;;;;12.30;8.38;;;-5.50;84.70;;;;;;6372526;28;20030;-79
2021/01/11 03:20:00;;;;;;;13.45;8.18;;;-5.60;84.70;;;;;;6354024;27;20063;-77
2021/01/11 03:23:01;;;;;;;13.60;9.05;;;-5.40;87.00;;;;;;6355181;27;20027;-79
2021/01/11 03:26:02;;;;;;;13.77;8.60;;;-4.20;86.60;;;;;;6377238;27;20516;-77
2021/01/11 03:29:03;;;;;;;12.73;8.20;;;-5.80;87.40;;;;;;6377772;27;20034;-77
2021/01/11 03:32:04;;;;;;;17.75;9.15;;;-5.70;99.90;;;;;;6377271;27;20027;-77
2021/01/11 03:35:05;;;;;;;14.70;9.35;;;-5.90;87.00;;;;;;6377006;27;20424;-77
2021/01/11 03:38:05;;;;;;;16.30;9.82;;;-5.80;88.30;;;;;;6376995;27;20019;-77
2021/01/11 03:41:08;;;;;;;16.05;9.88;;;-6.00;88.00;;;;;;6376872;27;20460;-77
2021/01/11 03:44:09;;;;;;;16.23;10.43;;;-5.90;89.60;;;;;;6376840;27;20027;-79
2021/01/11 03:47:10;;;;;;;17.55;9.63;;;;;;;;;;6376731;27;20050;-77
2021/01/11 03:50:12;;;;;;;15.15;9.05;;;-5.60;93.30;;;;;;6376798;27;20019;-77
2021/01/11 03:53:12;;;;;;;14.02;9.70;;;-5.70;85.70;;;;;;6376682;27;20039;-79
2021/01/11 03:56:13;;;;;;;14.65;8.55;;;-5.90;86.60;;;;;;6376774;27;20031;-77
2021/01/11 03:59:13;;;;;;;13.90;8.77;;;-6.00;87.90;;;;;;6376501;27;20095;-77
2021/01/11 04:02:14;;;;;;;13.80;8.65;;;-6.20;87.60;;;;;;6376333;27;20023;-77
2021/01/11 04:05:15;;;;;;;16.23;9.38;;;-6.10;89.20;;;;;;6375956;27;20053;-77
2021/01/11 04:08:15;;;;;;;19.00;11.00;;;-6.20;89.60;;;;;;6376188;27;20727;-78
2021/01/11 04:11:22;;;;;;;17.45;9.95;;;-6.30;89.00;;;;;;6376458;27;20080;-77
2021/01/11 04:14:22;;;;;;;18.15;11.32;;;-6.20;87.30;;;;;;6376202;27;20028;-77
2021/01/11 04:17:23;;;;;;;13.93;9.25;;;-5.80;99.90;;;;;;6358072;27;20037;-77
2021/01/11 04:20:24;;;;;;;15.52;9.00;;;-6.30;96.20;;;;;;6376112;27;20107;-78
2021/01/11 04:23:25;;;;;;;15.13;9.63;;;-6.30;90.10;;;;;;6376126;27;20044;-78
2021/01/11 04:26:25;;;;;;;19.02;10.77;;;-6.50;89.00;;;;;;6357462;27;20032;-77
2021/01/11 04:29:26;;;;;;;14.15;9.02;;;-6.40;90.70;;;;;;6375958;27;20015;-77
2021/01/11 04:32:26;;;;;;;15.70;10.02;;;-6.40;90.10;;;;;;6375716;27;20365;-78
2021/01/11 04:35:28;;;;;;;15.02;9.43;;;-6.30;98.50;;;;;;6375365;27;20023;-77
2021/01/11 04:38:28;;;;;;;17.05;10.10;;;-6.40;90.90;;;;;;6357377;27;20058;-77
2021/01/11 04:41:34;;;;;;;19.20;10.38;;;-6.40;90.10;;;;;;6375403;27;20356;-77
2021/01/11 04:44:35;;;;;;;17.02;10.00;;;-3.50;90.90;;;;;;6375514;27;20066;-77
2021/01/11 04:47:35;;;;;;;15.10;9.27;;;-6.50;88.80;;;;;;6356949;27;20019;-78
2021/01/11 04:50:36;;;;;;;16.13;10.07;;;-6.60;89.50;;;;;;6357028;27;20019;-77
2021/01/11 04:53:37;;;;;;;16.90;9.57;;;-6.50;89.90;;;;;;6339929;27;20042;-78
2021/01/11 04:56:41;;;;;;;15.02;9.23;;;-6.60;98.00;;;;;;6339964;27;20031;-77
2021/01/11 04:59:50;;;;;;;14.30;8.90;;;-6.60;90.30;;;;;;6375103;27;20068;-78
2021/01/11 05:02:57;;;;;;;25.98;14.68;;;-6.70;87.40;;;;;;6357399;27;20079;-77
2021/01/11 05:05:57;;;;;;;21.40;10.68;;;-6.70;98.90;;;;;;6374794;27;20047;-78
2021/01/11 05:09:07;;;;;;;18.33;10.75;;;-6.90;99.90;;;;;;6339622;27;20027;-77
2021/01/11 05:12:08;;;;;;;20.67;11.52;;;-6.50;89.30;;;;;;6374759;27;20025;-77
2021/01/11 05:15:20;;;;;;;50.60;23.98;;;-6.50;91.20;;;;;;6356426;27;20469;-77
2021/01/11 05:18:21;;;;;;;39.83;21.55;;;-6.60;88.80;;;;;;6356236;27;20050;-77
2021/01/11 05:21:40;;;;;;;23.23;14.18;;;-6.20;91.60;;;;;;6374456;27;20060;-76
2021/01/11 05:24:42;;;;;;;17.13;11.02;;;-6.50;91.80;;;;;;6374311;27;20121;-77
2021/01/11 05:27:44;;;;;;;20.95;13.88;;;-5.00;91.40;;;;;;6374364;27;20111;-78
2021/01/11 05:30:45;;;;;;;21.38;12.77;;;-6.60;91.60;;;;;;6374446;27;20019;-78
2021/01/11 05:33:52;;;;;;;21.15;12.00;;;-6.60;91.00;;;;;;6374351;27;20038;-77
2021/01/11 05:36:52;;;;;;;19.98;12.02;;;-6.50;91.60;;;;;;6374520;27;20068;-78
2021/01/11 05:40:11;;;;;;;25.25;13.77;;;-6.60;91.40;;;;;;6374187;27;20023;-76
2021/01/11 05:43:21;;;;;;;24.55;13.52;;;-6.40;99.20;;;;;;6374170;27;20106;-77
2021/01/11 05:46:28;;;;;;;34.65;16.83;;;-6.50;91.80;;;;;;6373889;27;20031;-76
2021/01/11 05:49:29;;;;;;;19.83;11.82;;;;;;;;;;6374399;27;20430;-76
2021/01/11 05:52:32;;;;;;;20.15;11.55;;;-6.50;98.40;;;;;;6373835;27;20098;-77
2021/01/11 05:55:33;;;;;;;22.50;13.38;;;-6.60;91.20;;;;;;6355801;27;20011;-77
2021/01/11 05:58:34;;;;;;;21.85;12.82;;;-6.50;90.60;;;;;;6373866;27;20035;-77
2021/01/11 06:01:36;;;;;;;19.55;12.15;;;-6.60;91.50;;;;;;6374034;27;20022;-76
2021/01/11 06:04:37;;;;;;;19.58;12.95;;;-6.60;90.50;;;;;;6355551;27;20058;-77
2021/01/11 06:07:37;;;;;;;19.83;11.77;;;-6.60;91.30;;;;;;6373900;27;20062;-78
2021/01/11 06:10:38;;;;;;;18.48;11.57;;;-6.60;91.40;;;;;;6338216;27;20411;-77
2021/01/11 06:13:39;;;;;;;19.25;11.73;;;;;;;;;;6355486;27;20020;-76
2021/01/11 06:16:40;;;;;;;20.33;12.25;;;-6.50;89.70;;;;;;6355337;27;20019;-77
2021/01/11 06:19:41;;;;;;;19.02;10.40;;;-6.60;90.70;;;;;;6373284;27;20038;-77
2021/01/11 06:22:44;;;;;;;18.45;11.13;;;-6.50;91.60;;;;;;6373383;27;20019;-78
2021/01/11 06:25:46;;;;;;;19.17;11.73;;;-6.50;98.60;;;;;;6373165;27;20122;-77
2021/01/11 06:28:46;;;;;;;21.35;11.30;;;-6.60;91.20;;;;;;6373368;27;20026;-78
2021/01/11 06:31:47;;;;;;;20.20;12.35;;;-6.60;92.10;;;;;;6337826;27;20019;-77
2021/01/11 06:34:48;;;;;;;22.92;14.35;;;-6.80;91.00;;;;;;6373125;27;20027;-77
2021/01/11 06:37:48;;;;;;;26.00;16.60;;;-6.60;91.60;;;;;;6354825;27;20103;-77
2021/01/11 06:41:02;;;;;;;25.42;17.25;;;-6.80;91.40;;;;;;6337822;27;20043;-77
2021/01/11 06:44:08;;;;;;;20.80;11.65;;;-6.70;93.60;;;;;;6356540;27;20028;-77
2021/01/11 06:47:09;;;;;;;32.97;18.73;;;-6.90;92.40;;;;;;6373107;27;20023;-79
2021/01/11 06:50:10;;;;;;;59.30;26.02;;;-6.80;91.90;;;;;;6354811;28;20023;-77
2021/01/11 06:53:10;;;;;;;33.25;18.13;;;-7.10;92.60;;;;;;6373156;27;20358;-77
2021/01/11 06:56:11;;;;;;;30.08;17.00;;;-6.90;92.20;;;;;;6372826;28;20027;-77
2021/01/11 06:59:13;;;;;;;40.35;21.27;;;-7.00;92.50;;;;;;6357867;27;20019;-78
2021/01/11 07:02:24;;;;;;;34.60;19.80;;;-6.90;92.40;;;;;;6378342;27;20080;-78
2021/01/11 07:05:34;;;;;;;31.15;17.40;;;-7.00;92.00;;;;;;6377621;27;20053;-77
2021/01/11 07:08:34;;;;;;;28.27;14.90;;;-7.00;92.90;;;;;;6378159;27;20027;-77
2021/01/11 07:11:36;;;;;;;25.80;14.35;;;-7.10;99.90;;;;;;6342401;27;20368;-78
2021/01/11 07:14:55;;;;;;;21.95;13.43;;;-7.00;97.60;;;;;;6378003;27;20023;-77
2021/01/11 07:17:56;;;;;;;23.50;13.40;;;-7.20;92.00;;;;;;6377730;27;20030;-78
2021/01/11 07:20:57;;;;;;;22.38;13.48;;;-7.10;91.60;;;;;;6377830;27;20023;-77
2021/01/11 07:23:59;;;;;;;24.90;12.63;;;-7.30;99.40;;;;;;6377474;27;20156;-77
2021/01/11 07:27:00;;;;;;;21.02;13.23;;;;;;;;;;6377599;27;20046;-77
2021/01/11 07:30:01;;;;;;;22.13;12.57;;;;;;;;;;6377373;27;20022;-77
2021/01/11 07:33:10;;;;;;;24.95;15.02;;;-6.90;90.70;;;;;;6377625;27;20015;-77
2021/01/11 07:36:23;;;;;;;24.25;14.93;;;-7.10;91.50;;;;;;6377344;27;20016;-78
2021/01/11 07:39:30;;;;;;;24.38;13.70;;;-7.00;92.00;;;;;;6377565;27;20031;-77
2021/01/11 07:42:31;;;;;;;104.22;42.53;;;-7.00;99.90;;;;;;6377239;27;20027;-77
2021/01/11 07:45:31;;;;;;;34.38;18.13;;;-7.00;97.10;;;;;;6377045;27;20026;-77
2021/01/11 07:48:32;;;;;;;24.85;13.25;;;-7.10;91.50;;;;;;6376931;27;20072;-77
2021/01/11 07:51:35;;;;;;;24.55;14.02;;;-7.50;91.10;;;;;;6377180;27;20019;-76
2021/01/11 07:54:39;;;;;;;21.48;12.30;;;-7.10;91.90;;;;;;6358973;27;20034;-78
2021/01/11 07:57:40;;;;;;;22.52;12.00;;;;;;;;;;6377137;27;20027;-78
2021/01/11 08:00:41;;;;;;;19.65;12.10;;;-6.40;96.10;;;;;;6376784;27;20019;-77
2021/01/11 08:03:41;;;;;;;20.25;12.10;;;-5.60;89.20;;;;;;6376257;27;20043;-78
2021/01/11 08:06:44;;;;;;;21.40;13.23;;;-4.40;82.50;;;;;;6341847;27;20072;-79
2021/01/11 08:09:44;;;;;;;20.90;13.18;;;-2.80;82.20;;;;;;6375907;27;20035;-77
2021/01/11 08:12:45;;;;;;;22.52;13.35;;;-2.50;77.90;;;;;;6376620;27;20365;-78
2021/01/11 08:15:46;;;;;;;19.35;12.43;;;-2.00;90.00;;;;;;6357976;27;20049;-78
2021/01/11 08:18:46;;;;;;;18.75;12.30;;;-1.40;75.20;;;;;;6341171;27;20020;-78
2021/01/11 08:21:54;;;;;;;20.75;13.02;;;-0.60;71.10;;;;;;6340971;27;20456;-80
2021/01/11 08:24:56;;;;;;;22.58;13.77;;;1.30;72.00;;;;;;6359292;27;20087;-78
2021/01/11 08:27:57;;;;;;;20.08;12.52;;;-0.20;68.70;;;;;;6357946;27;20019;-78
2021/01/11 08:31:01;;;;;;;24.92;15.73;;;0.40;70.20;;;;;;6340901;27;20734;-79
2021/01/11 08:34:01;;;;;;;19.42;13.40;;;0.50;68.20;;;;;;6376083;27;20019;-78
2021/01/11 08:37:19;;;;;;;21.33;12.95;;;0.70;65.30;;;;;;6357605;27;20015;-79
2021/01/11 08:40:29;;;;;;;20.60;12.55;;;1.40;66.00;;;;;;6376038;27;20464;-78
2021/01/11 08:43:33;;;;;;;21.17;13.15;;;2.40;63.90;;;;;;6376016;27;20011;-78
2021/01/11 08:46:53;;;;;;;22.77;13.55;;;2.70;77.70;;;;;;6340695;27;20504;-78
2021/01/11 08:50:01;;;;;;;20.20;13.10;;;2.50;62.90;;;;;;6375757;27;20537;-78
2021/01/11 08:53:21;;;;;;;19.50;13.30;;;2.00;56.90;;;;;;6357908;27;20030;-79
2021/01/11 08:56:30;;;;;;;19.83;12.35;;;2.70;60.30;;;;;;6375596;27;20046;-79
2021/01/11 08:59:31;;;;;;;20.55;12.27;;;2.70;60.60;;;;;;6357119;27;20026;-79
2021/01/11 09:02:31;;;;;;;20.02;13.00;;;2.80;57.90;;;;;;6356925;27;20058;-79
2021/01/11 09:05:32;;;;;;;19.98;13.20;;;2.60;58.80;;;;;;6374914;27;20043;-79
2021/01/11 09:08:32;;;;;;;23.67;15.77;;;2.50;57.80;;;;;;6339897;27;20033;-79
2021/01/11 09:11:33;;;;;;;18.80;12.00;;;3.30;59.80;;;;;;6356776;27;20035;-79
2021/01/11 09:14:35;;;;;;;17.83;12.95;;;2.90;56.30;;;;;;6356479;27;20027;-80
2021/01/11 09:17:35;;;;;;;23.88;14.52;;;2.50;69.10;;;;;;6375096;27;20022;-81
2021/01/11 09:20:43;;;;;;;18.25;12.85;;;3.10;57.90;;;;;;6373880;27;20023;-77
2021/01/11 09:23:44;;;;;;;21.00;13.15;;;2.70;56.90;;;;;;6374836;27;20038;-78
2021/01/11 09:26:44;;;;;;;20.98;14.82;;;3.80;57.70;;;;;;6374801;27;20031;-82
2021/01/11 09:29:45;;;;;;;18.52;12.10;;;3.80;56.00;;;;;;6375009;27;20031;-76
2021/01/11 09:32:46;;;;;;;19.38;12.63;;;3.80;55.00;;;;;;6374600;27;20102;-77
2021/01/11 09:35:46;;;;;;;18.23;13.32;;;4.50;54.20;;;;;;6374661;27;20027;-77
2021/01/11 09:38:47;;;;;;;20.13;11.50;;;4.40;51.30;;;;;;6374157;27;20073;-77
2021/01/11 09:41:56;;;;;;;18.38;12.48;;;5.10;52.80;;;;;;6374221;27;20076;-79
2021/01/11 09:44:57;;;;;;;17.70;12.30;;;4.80;49.30;;;;;;6356490;27;20031;-78
2021/01/11 09:47:57;;;;;;;16.77;11.18;;;5.00;49.70;;;;;;6374038;27;20046;-77
2021/01/11 09:50:58;;;;;;;15.23;11.38;;;4.70;47.70;;;;;;6355776;27;20080;-79
2021/01/11 09:53:58;;;;;;;25.90;12.60;;;4.60;47.60;;;;;;6373874;27;20451;-79
2021/01/11 09:56:59;;;;;;;19.63;12.15;;;4.80;48.20;;;;;;6355804;27;20072;-77
2021/01/11 10:00:00;;;;;;;16.88;11.15;;;4.70;48.40;;;;;;6373858;27;20019;-77
2021/01/11 10:03:00;;;;;;;15.35;11.40;;;4.80;47.80;;;;;;6373646;27;20027;-79
2021/01/11 10:06:05;;;;;;;17.83;11.52;;;5.00;47.20;;;;;;6373726;27;20118;-77
2021/01/11 10:09:05;;;;;;;17.30;11.40;;;5.20;57.30;;;;;;6373902;27;20441;-77
2021/01/11 10:12:06;;;;;;;15.23;12.35;;;4.60;48.00;;;;;;6355279;27;20023;-77
2021/01/11 10:15:07;;;;;;;16.77;12.43;;;4.40;48.80;;;;;;6373799;27;20031;-77
2021/01/11 10:18:08;;;;;;;15.85;10.98;;;4.40;50.30;;;;;;6373675;27;20027;-77
2021/01/11 10:21:08;;;;;;;21.67;12.32;;;4.50;48.90;;;;;;6373366;27;20064;-79
2021/01/11 10:24:10;;;;;;;16.83;12.05;;;4.50;49.40;;;;;;6373369;27;20023;-78
2021/01/11 10:27:10;;;;;;;19.48;12.82;;;5.00;47.30;;;;;;6373356;27;20029;-77
2021/01/11 10:30:11;;;;;;;15.15;11.65;;;5.50;47.40;;;;;;6373485;27;20019;-76
2021/01/11 10:33:12;;;;;;;18.88;13.07;;;5.20;47.10;;;;;;6372870;27;20023;-78
2021/01/11 10:36:13;;;;;;;19.40;12.48;;;6.00;46.80;;;;;;6373213;27;20023;-77
2021/01/11 10:39:15;;;;;;;18.00;11.65;;;6.20;45.20;;;;;;6373124;27;20027;-78
2021/01/11 10:42:15;;;;;;;15.60;11.35;;;7.10;43.40;;;;;;6373079;27;20044;-77
2021/01/11 10:45:16;;;;;;;16.70;11.77;;;7.20;41.90;;;;;;6373029;27;20035;-77
2021/01/11 10:48:16;;;;;;;21.25;12.80;;;7.50;41.90;;;;;;6372970;27;20027;-77
2021/01/11 10:51:17;;;;;;;16.58;12.13;;;7.40;42.20;;;;;;6354454;27;20031;-76
2021/01/11 10:54:17;;;;;;;17.65;11.15;;;7.00;43.00;;;;;;6372912;27;20027;-77
2021/01/11 10:57:18;;;;;;;18.95;12.25;;;6.70;43.20;;;;;;6372819;28;20019;-77
2021/01/11 11:00:21;;;;;;;19.08;12.07;;;7.00;57.60;;;;;;6372849;28;20502;-77
2021/01/11 11:03:21;;;;;;;;;;;6.40;45.00;;;;;;6373307;28;20047;-77
2021/01/11 11:06:22;;;;;;;25.75;19.52;;;6.70;43.90;;;;;;6372727;27;20265;-77
2021/01/11 11:09:23;;;;;;;55.38;37.83;;;6.70;45.70;;;;;;6373040;28;20027;-79
2021/01/11 11:12:23;;;;;;;55.20;30.35;;;6.40;45.60;;;;;;6372880;27;20055;-78
2021/01/11 11:15:27;;;;;;;64.93;33.97;;;6.60;45.70;;;;;;6372359;27;20019;-77
2021/01/11 11:18:28;;;;;;;27.17;18.13;;;6.50;44.90;;;;;;6354504;28;20156;-77
2021/01/11 11:21:28;;;;;;;16.65;12.32;;;6.30;45.20;;;;;;6354104;27;20023;-77
2021/01/11 11:24:29;;;;;;;16.10;11.65;;;5.90;47.60;;;;;;6372661;28;20468;-77
2021/01/11 11:27:29;;;;;;;15.02;12.15;;;5.70;47.20;;;;;;6354195;28;20024;-77
2021/01/11 11:30:30;;;;;;;18.92;11.50;;;5.90;47.50;;;;;;6372720;27;20032;-77
2021/01/11 11:33:31;;;;;;;24.30;15.93;;;5.90;48.40;;;;;;6372574;27;20429;-77
2021/01/11 11:36:31;;;;;;;15.57;11.15;;;6.20;59.40;;;;;;6372539;28;20384;-77
2021/01/11 11:39:32;;;;;;;13.52;10.80;;;6.00;49.50;;;;;;6372520;28;20030;-78
2021/01/11 11:42:34;;;;;;;18.40;12.95;;;5.40;48.50;;;;;;6372346;28;20450;-78
2021/01/11 11:45:34;;;;;;;13.13;10.60;;;5.70;48.50;;;;;;6376077;27;20030;-77
2021/01/11 11:48:35;;;;;;;16.98;12.32;;;5.90;48.50;;;;;;6377011;27;20046;-77
2021/01/11 11:51:39;;;;;;;16.33;12.30;;;5.50;48.00;;;;;;6376827;27;20027;-78
2021/01/11 11:54:40;;;;;;;14.90;11.48;;;5.80;48.30;;;;;;6376884;27;20033;-78
2021/01/11 11:57:41;;;;;;;14.73;11.18;;;5.10;49.60;;;;;;6376858;27;20020;-79
2021/01/11 12:00:41;;;;;;;14.00;11.05;;;4.80;50.90;;;;;;6376697;27;20045;-77
2021/01/11 12:03:42;;;;;;;16.55;10.60;;;4.80;50.60;;;;;;6376565;27;20043;-77
2021/01/11 12:06:44;;;;;;;16.88;11.95;;;5.00;51.40;;;;;;6376547;27;20118;-77
2021/01/11 12:09:45;;;;;;;15.25;10.80;;;4.60;52.50;;;;;;6376677;27;20110;-78
2021/01/11 12:12:48;;;;;;;13.90;10.65;;;4.50;53.10;;;;;;6376854;27;20368;-79
2021/01/11 12:15:49;;;;;;;15.13;11.18;;;4.50;55.50;;;;;;6376301;27;20031;-77
2021/01/11 12:18:50;;;;;;;14.07;10.70;;;3.80;54.80;;;;;;6376425;27;20019;-76
2021/01/11 12:21:50;;;;;;;16.35;12.70;;;4.50;55.10;;;;;;6376284;27;20723;-77
2021/01/11 12:24:51;;;;;;;18.27;12.02;;;4.00;54.40;;;;;;6376381;27;20072;-78
2021/01/11 12:27:51;;;;;;;16.45;12.40;;;4.10;67.60;;;;;;6376280;27;20102;-77
2021/01/11 12:30:52;;;;;;;16.42;11.70;;;4.40;55.80;;;;;;6376415;27;20019;-77
2021/01/11 12:33:52;;;;;;;20.88;13.82;;;4.10;54.10;;;;;;6375927;27;20027;-77
2021/01/11 12:36:53;;;;;;;18.67;13.60;;;4.30;56.10;;;;;;6376215;27;20456;-76
2021/01/11 12:39:54;;;;;;;17.92;13.10;;;4.20;55.30;;;;;;6376078;27;20031;-77
2021/01/11 12:42:54;;;;;;;15.50;12.30;;;4.70;57.10;;;;;;6375802;27;20158;-77
2021/01/11 12:45:55;;;;;;;24.63;17.15;;;3.80;55.80;;;;;;6375875;27;20031;-77
2021/01/11 12:48:55;;;;;;;15.25;12.00;;;4.40;55.60;;;;;;6375589;27;20099;-77
2021/01/11 12:51:56;;;;;;;20.65;14.50;;;4.00;58.00;;;;;;6375781;27;20024;-78
2021/01/11 12:54:57;;;;;;;17.65;12.35;;;4.60;57.70;;;;;;6375611;27;20023;-77
2021/01/11 12:57:58;;;;;;;19.73;12.73;;;4.10;60.80;;;;;;6375501;27;20084;-76
2021/01/11 13:00:58;;;;;;;18.15;12.35;;;3.60;90.40;;;;;;6375294;27;20019;-76
2021/01/11 13:04:00;;;;;;;33.40;19.38;;;4.10;73.80;;;;;;6374868;27;20462;-77
2021/01/11 13:07:01;;;;;;;16.90;11.77;;;3.70;58.20;;;;;;6375295;27;20034;-76
2021/01/11 13:10:03;;;;;;;18.92;13.00;;;3.80;57.70;;;;;;6375163;27;20023;-78
2021/01/11 13:13:03;;;;;;;16.58;12.45;;;3.20;59.20;;;;;;6375128;27;20187;-77
2021/01/11 13:16:04;;;;;;;17.70;13.23;;;4.40;59.60;;;;;;6374962;27;20038;-77
2021/01/11 13:19:11;;;;;;;17.13;12.95;;;3.00;73.80;;;;;;6374900;27;20026;-76
2021/01/11 13:22:11;;;;;;;19.33;13.23;;;3.10;61.90;;;;;;6374776;27;20035;-76
2021/01/11 13:25:14;;;;;;;20.83;13.63;;;3.80;61.80;;;;;;6374855;27;20027;-76
2021/01/11 13:28:14;;;;;;;17.23;13.23;;;2.90;61.30;;;;;;6374589;27;20858;-77
2021/01/11 13:31:15;;;;;;;24.48;13.02;;;3.20;60.50;;;;;;6374875;27;20027;-76
2021/01/11 13:34:16;;;;;;;18.05;13.20;;;2.90;61.50;;;;;;6374692;27;20023;-76
2021/01/11 13:37:17;;;;;;;19.17;12.77;;;3.10;62.70;;;;;;6374612;27;20072;-76
2021/01/11 13:40:17;;;;;;;18.02;13.88;;;2.90;61.10;;;;;;6374521;27;20030;-76
2021/01/11 13:43:18;;;;;;;19.25;13.40;;;3.50;63.50;;;;;;6374294;27;20084;-76
2021/01/11 13:46:19;;;;;;;15.90;12.35;;;3.40;61.80;;;;;;6374203;27;20041;-78
2021/01/11 13:49:23;;;;;;;18.27;13.35;;;2.40;62.20;;;;;;6338643;27;20027;-79
2021/01/11 13:52:24;;;;;;;19.92;13.57;;;3.00;60.10;;;;;;6374116;27;20035;-77
2021/01/11 13:55:24;;;;;;;20.10;13.80;;;2.80;75.70;;;;;;6374065;27;20510;-77
2021/01/11 13:58:25;;;;;;;20.08;13.98;;;2.90;63.80;;;;;;6374306;27;20043;-76
2021/01/11 14:01:25;;;;;;;18.75;13.90;;;2.70;61.70;;;;;;6374019;27;20015;-77
2021/01/11 14:04:26;;;;;;;18.83;13.18;;;2.50;63.40;;;;;;6373469;27;20062;-76
2021/01/11 14:07:28;;;;;;;19.40;14.07;;;3.00;62.10;;;;;;6373373;27;20414;-77
2021/01/11 14:10:28;;;;;;;19.42;13.25;;;2.20;64.00;;;;;;6373646;27;20445;-76
2021/01/11 14:13:29;;;;;;;19.05;12.80;;;2.10;63.80;;;;;;6373608;27;20015;-76
2021/01/11 14:16:29;;;;;;;17.98;12.93;;;1.80;62.60;;;;;;6373461;27;20072;-76
2021/01/11 14:19:30;;;;;;;19.27;13.52;;;1.60;64.30;;;;;;6373755;27;20034;-76
2021/01/11 14:22:31;;;;;;;19.33;13.55;;;1.60;63.10;;;;;;6373496;27;20030;-76
2021/01/11 14:25:31;;;;;;;19.20;13.02;;;1.70;65.20;;;;;;6373619;27;20027;-77
2021/01/11 14:28:32;;;;;;;20.35;14.18;;;1.50;65.10;;;;;;6373419;27;20023;-76
2021/01/11 14:31:32;;;;;;;18.85;13.52;;;1.30;63.90;;;;;;6373584;27;20030;-77
2021/01/11 14:34:33;;;;;;;21.08;13.40;;;1.70;64.60;;;;;;6373250;27;20027;-76
2021/01/11 14:37:34;;;;;;;19.73;13.18;;;1.90;65.10;;;;;;6373091;27;20102;-76
2021/01/11 14:40:34;;;;;;;18.58;12.35;;;1.80;66.70;;;;;;6373032;27;20445;-77
2021/01/11 14:43:35;;;;;;;21.10;13.88;;;2.30;66.50;;;;;;6373033;27;20090;-76
2021/01/11 14:46:36;;;;;;;23.02;14.13;;;2.40;82.00;;;;;;6373133;27;20494;-77
2021/01/11 14:49:36;;;;;;;19.27;12.60;;;2.70;69.10;;;;;;6372919;27;20113;-76
2021/01/11 14:52:37;;;;;;;19.70;13.43;;;1.70;66.40;;;;;;6372919;27;20031;-76
2021/01/11 14:55:37;;;;;;;20.23;13.88;;;1.30;67.80;;;;;;6372792;27;20445;-76
2021/01/11 14:58:38;;;;;;;20.52;14.07;;;1.80;67.70;;;;;;6372984;27;20049;-76
2021/01/11 15:01:39;;;;;;;21.38;13.95;;;1.30;69.60;;;;;;6372817;28;20046;-78
2021/01/11 15:04:40;;;;;;;21.20;14.15;;;1.00;72.60;;;;;;6372602;27;20477;-79
2021/01/11 15:07:40;;;;;;;21.95;14.70;;;1.80;71.50;;;;;;6372833;28;20035;-79
2021/01/11 15:10:41;;;;;;;20.52;13.43;;;2.20;73.60;;;;;;6372657;27;20387;-77
2021/01/11 15:13:42;;;;;;;21.92;13.75;;;0.90;72.10;;;;;;6372782;28;20019;-78
2021/01/11 15:16:43;;;;;;;20.65;14.63;;;0.60;74.30;;;;;;6372628;27;20027;-77
2021/01/11 15:19:44;;;;;;;20.92;13.73;;;;;;;;;;6375093;27;20027;-78
2021/01/11 15:22:44;;;;;;;20.73;12.52;;;0.50;86.60;;;;;;6377666;27;20015;-78
2021/01/11 15:25:45;;;;;;;20.35;14.35;;;1.00;77.00;;;;;;6359413;27;20380;-78
2021/01/11 15:28:46;;;;;;;22.10;15.35;;;0.20;76.80;;;;;;6377606;27;20031;-78
2021/01/11 15:31:46;;;;;;;23.52;15.13;;;1.90;77.20;;;;;;6377539;27;20023;-79
2021/01/11 15:34:47;;;;;;;23.20;14.60;;;0.20;74.50;;;;;;6377523;27;20452;-78
2021/01/11 15:37:47;;;;;;;24.05;14.88;;;0.10;76.00;;;;;;6377337;27;20102;-78